sensor_id;sensor_type;location;lat;lon;timestamp;P1;durP1;ratioP1;P2;durP2;ratioP2
84780;SDS011;75011;50.086;19.886;2024-02-21T00:02:22;7.60;;;3.10;;
84780;SDS011;75011;50.086;19.886;2024-02-21T00:05:24;7.97;;;3.85;;
84780;SDS011;75011;50.086;19.886;2024-02-21T00:08:25;8.98;;;3.88;;
84780;SDS011;75011;50.086;19.886;2024-02-21T00:11:25;7.60;;;3.28;;
84780;SDS011;75011;50.086;19.886;2024-02-21T00:14:26;10.15;;;4.28;;
84780;SDS011;75011;50.086;19.886;2024-02-21T00:17:26;8.77;;;4.93;;
84780;SDS011;75011;50.086;19.886;2024-02-21T00:20:28;9.15;;;5.13;;
84780;SDS011;75011;50.086;19.886;2024-02-21T00:23:28;12.63;;;6.10;;
84780;SDS011;75011;50.086;19.886;2024-02-21T00:26:29;13.20;;;6.50;;
84780;SDS011;75011;50.086;19.886;2024-02-21T00:29:29;14.32;;;8.40;;
84780;SDS011;75011;50.086;19.886;2024-02-21T00:32:30;12.60;;;6.93;;
84780;SDS011;75011;50.086;19.886;2024-02-21T00:35:32;13.30;;;7.43;;
84780;SDS011;75011;50.086;19.886;2024-02-21T00:38:32;18.55;;;7.13;;
84780;SDS011;75011;50.086;19.886;2024-02-21T00:41:33;13.98;;;7.78;;
84780;SDS011;75011;50.086;19.886;2024-02-21T00:44:33;19.02;;;8.07;;
84780;SDS011;75011;50.086;19.886;2024-02-21T00:47:34;18.55;;;8.82;;
84780;SDS011;75011;50.086;19.886;2024-02-21T00:50:35;17.05;;;8.73;;
84780;SDS011;75011;50.086;19.886;2024-02-21T00:53:36;19.88;;;9.75;;
84780;SDS011;75011;50.086;19.886;2024-02-21T00:56:37;17.48;;;8.15;;
84780;SDS011;75011;50.086;19.886;2024-02-21T00:59:37;21.88;;;9.75;;
84780;SDS011;75011;50.086;19.886;2024-02-21T01:02:37;22.55;;;10.77;;
84780;SDS011;75011;50.086;19.886;2024-02-21T01:05:39;22.58;;;9.55;;
84780;SDS011;75011;50.086;19.886;2024-02-21T01:08:41;20.77;;;9.07;;
84780;SDS011;75011;50.086;19.886;2024-02-21T01:11:41;20.60;;;10.00;;
84780;SDS011;75011;50.086;19.886;2024-02-21T01:14:42;24.98;;;10.32;;
84780;SDS011;75011;50.086;19.886;2024-02-21T01:17:42;22.27;;;9.93;;
84780;SDS011;75011;50.086;19.886;2024-02-21T01:20:44;19.40;;;10.45;;
84780;SDS011;75011;50.086;19.886;2024-02-21T01:23:45;20.30;;;9.73;;
84780;SDS011;75011;50.086;19.886;2024-02-21T01:26:45;26.33;;;10.98;;
84780;SDS011;75011;50.086;19.886;2024-02-21T01:29:46;19.08;;;10.40;;
84780;SDS011;75011;50.086;19.886;2024-02-21T01:32:46;23.90;;;11.00;;
84780;SDS011;75011;50.086;19.886;2024-02-21T01:35:48;25.83;;;11.23;;
84780;SDS011;75011;50.086;19.886;2024-02-21T01:38:48;25.20;;;11.32;;
84780;SDS011;75011;50.086;19.886;2024-02-21T01:41:49;29.10;;;12.38;;
84780;SDS011;75011;50.086;19.886;2024-02-21T01:44:49;25.10;;;11.98;;
84780;SDS011;75011;50.086;19.886;2024-02-21T01:47:50;28.13;;;12.15;;
84780;SDS011;75011;50.086;19.886;2024-02-21T01:50:53;27.83;;;11.40;;
84780;SDS011;75011;50.086;19.886;2024-02-21T01:53:55;29.10;;;11.40;;
84780;SDS011;75011;50.086;19.886;2024-02-21T01:56:56;27.45;;;10.77;;
84780;SDS011;75011;50.086;19.886;2024-02-21T01:59:57;28.83;;;12.05;;
84780;SDS011;75011;50.086;19.886;2024-02-21T02:02:57;29.02;;;10.85;;
84780;SDS011;75011;50.086;19.886;2024-02-21T02:05:59;25.88;;;11.00;;
84780;SDS011;75011;50.086;19.886;2024-02-21T02:09:00;26.73;;;9.93;;
84780;SDS011;75011;50.086;19.886;2024-02-21T02:12:01;27.17;;;12.00;;
84780;SDS011;75011;50.086;19.886;2024-02-21T02:15:02;24.15;;;10.52;;
84780;SDS011;75011;50.086;19.886;2024-02-21T02:18:03;28.08;;;11.77;;
84780;SDS011;75011;50.086;19.886;2024-02-21T02:21:07;27.10;;;11.45;;
84780;SDS011;75011;50.086;19.886;2024-02-21T02:24:14;27.25;;;12.48;;
84780;SDS011;75011;50.086;19.886;2024-02-21T02:27:15;26.58;;;11.70;;
84780;SDS011;75011;50.086;19.886;2024-02-21T02:30:16;34.45;;;12.65;;
84780;SDS011;75011;50.086;19.886;2024-02-21T02:33:17;34.63;;;11.75;;
84780;SDS011;75011;50.086;19.886;2024-02-21T02:36:17;27.70;;;12.85;;
84780;SDS011;75011;50.086;19.886;2024-02-21T02:39:19;28.38;;;12.80;;
84780;SDS011;75011;50.086;19.886;2024-02-21T02:42:19;27.23;;;13.35;;
84780;SDS011;75011;50.086;19.886;2024-02-21T02:45:20;32.15;;;12.50;;
84780;SDS011;75011;50.086;19.886;2024-02-21T02:48:21;27.02;;;11.13;;
84780;SDS011;75011;50.086;19.886;2024-02-21T02:51:22;23.48;;;11.00;;
84780;SDS011;75011;50.086;19.886;2024-02-21T02:54:24;25.40;;;11.52;;
84780;SDS011;75011;50.086;19.886;2024-02-21T02:57:24;23.42;;;9.93;;
84780;SDS011;75011;50.086;19.886;2024-02-21T03:00:25;23.10;;;10.82;;
84780;SDS011;75011;50.086;19.886;2024-02-21T03:03:25;22.60;;;10.65;;
84780;SDS011;75011;50.086;19.886;2024-02-21T03:06:26;21.35;;;9.32;;
84780;SDS011;75011;50.086;19.886;2024-02-21T03:09:28;27.25;;;10.60;;
84780;SDS011;75011;50.086;19.886;2024-02-21T03:12:28;29.45;;;12.15;;
84780;SDS011;75011;50.086;19.886;2024-02-21T03:15:28;28.33;;;11.93;;
84780;SDS011;75011;50.086;19.886;2024-02-21T03:18:29;24.50;;;11.68;;
84780;SDS011;75011;50.086;19.886;2024-02-21T03:21:29;26.20;;;12.23;;
84780;SDS011;75011;50.086;19.886;2024-02-21T03:24:32;29.58;;;12.25;;
84780;SDS011;75011;50.086;19.886;2024-02-21T03:27:32;30.80;;;12.93;;
84780;SDS011;75011;50.086;19.886;2024-02-21T03:30:33;29.27;;;13.98;;
84780;SDS011;75011;50.086;19.886;2024-02-21T03:33:33;27.90;;;11.48;;
84780;SDS011;75011;50.086;19.886;2024-02-21T03:36:34;25.17;;;11.77;;
84780;SDS011;75011;50.086;19.886;2024-02-21T03:39:36;27.05;;;11.80;;
84780;SDS011;75011;50.086;19.886;2024-02-21T03:42:37;25.52;;;10.63;;
84780;SDS011;75011;50.086;19.886;2024-02-21T03:45:37;26.60;;;10.57;;
84780;SDS011;75011;50.086;19.886;2024-02-21T03:48:38;22.30;;;10.02;;
84780;SDS011;75011;50.086;19.886;2024-02-21T03:51:38;20.88;;;9.23;;
84780;SDS011;75011;50.086;19.886;2024-02-21T03:54:40;27.30;;;9.57;;
84780;SDS011;75011;50.086;19.886;2024-02-21T03:57:40;28.17;;;10.23;;
84780;SDS011;75011;50.086;19.886;2024-02-21T04:00:41;27.17;;;10.50;;
84780;SDS011;75011;50.086;19.886;2024-02-21T04:03:41;27.77;;;11.32;;
84780;SDS011;75011;50.086;19.886;2024-02-21T04:06:46;27.00;;;10.63;;
84780;SDS011;75011;50.086;19.886;2024-02-21T04:09:48;23.80;;;10.60;;
84780;SDS011;75011;50.086;19.886;2024-02-21T04:12:49;22.70;;;10.48;;
84780;SDS011;75011;50.086;19.886;2024-02-21T04:15:49;22.05;;;9.73;;
84780;SDS011;75011;50.086;19.886;2024-02-21T04:18:49;24.13;;;10.00;;
84780;SDS011;75011;50.086;19.886;2024-02-21T04:21:50;24.10;;;10.25;;
84780;SDS011;75011;50.086;19.886;2024-02-21T04:24:52;24.38;;;10.85;;
84780;SDS011;75011;50.086;19.886;2024-02-21T04:27:52;27.90;;;11.30;;
84780;SDS011;75011;50.086;19.886;2024-02-21T04:30:53;30.35;;;10.60;;
84780;SDS011;75011;50.086;19.886;2024-02-21T04:33:53;25.48;;;10.57;;
84780;SDS011;75011;50.086;19.886;2024-02-21T04:36:54;28.02;;;10.40;;
84780;SDS011;75011;50.086;19.886;2024-02-21T04:39:56;28.42;;;11.88;;
84780;SDS011;75011;50.086;19.886;2024-02-21T04:42:56;28.85;;;11.43;;
84780;SDS011;75011;50.086;19.886;2024-02-21T04:45:57;26.45;;;11.43;;
84780;SDS011;75011;50.086;19.886;2024-02-21T04:48:57;32.65;;;14.50;;
84780;SDS011;75011;50.086;19.886;2024-02-21T04:51:58;24.55;;;10.70;;
84780;SDS011;75011;50.086;19.886;2024-02-21T04:54:59;27.98;;;10.30;;
84780;SDS011;75011;50.086;19.886;2024-02-21T04:58:00;23.20;;;10.30;;
84780;SDS011;75011;50.086;19.886;2024-02-21T05:01:00;26.13;;;9.73;;
84780;SDS011;75011;50.086;19.886;2024-02-21T05:04:01;22.70;;;9.48;;
84780;SDS011;75011;50.086;19.886;2024-02-21T05:07:02;26.88;;;10.18;;
84780;SDS011;75011;50.086;19.886;2024-02-21T05:10:04;28.05;;;10.45;;
84780;SDS011;75011;50.086;19.886;2024-02-21T05:13:07;22.20;;;9.95;;
84780;SDS011;75011;50.086;19.886;2024-02-21T05:16:07;30.23;;;10.55;;
84780;SDS011;75011;50.086;19.886;2024-02-21T05:19:08;24.55;;;10.38;;
84780;SDS011;75011;50.086;19.886;2024-02-21T05:22:08;25.38;;;11.30;;
84780;SDS011;75011;50.086;19.886;2024-02-21T05:25:10;23.15;;;10.52;;
84780;SDS011;75011;50.086;19.886;2024-02-21T05:28:11;26.77;;;10.88;;
84780;SDS011;75011;50.086;19.886;2024-02-21T05:31:11;24.50;;;9.40;;
84780;SDS011;75011;50.086;19.886;2024-02-21T05:34:11;22.65;;;10.98;;
84780;SDS011;75011;50.086;19.886;2024-02-21T05:37:12;25.52;;;9.95;;
84780;SDS011;75011;50.086;19.886;2024-02-21T05:40:14;26.02;;;11.68;;
84780;SDS011;75011;50.086;19.886;2024-02-21T05:43:14;26.70;;;10.50;;
84780;SDS011;75011;50.086;19.886;2024-02-21T05:46:18;30.10;;;12.25;;
84780;SDS011;75011;50.086;19.886;2024-02-21T05:49:19;26.70;;;10.73;;
84780;SDS011;75011;50.086;19.886;2024-02-21T05:52:19;32.00;;;13.45;;
84780;SDS011;75011;50.086;19.886;2024-02-21T05:55:21;34.85;;;14.18;;
84780;SDS011;75011;50.086;19.886;2024-02-21T05:58:22;33.33;;;13.27;;
84780;SDS011;75011;50.086;19.886;2024-02-21T06:01:22;29.27;;;13.35;;
84780;SDS011;75011;50.086;19.886;2024-02-21T06:04:23;33.13;;;12.90;;
84780;SDS011;75011;50.086;19.886;2024-02-21T06:07:23;34.55;;;12.82;;
84780;SDS011;75011;50.086;19.886;2024-02-21T06:10:25;30.95;;;12.07;;
84780;SDS011;75011;50.086;19.886;2024-02-21T06:13:26;31.83;;;12.63;;
84780;SDS011;75011;50.086;19.886;2024-02-21T06:16:27;32.13;;;12.50;;
84780;SDS011;75011;50.086;19.886;2024-02-21T06:19:27;29.35;;;11.73;;
84780;SDS011;75011;50.086;19.886;2024-02-21T06:22:29;22.98;;;10.80;;
84780;SDS011;75011;50.086;19.886;2024-02-21T06:25:31;24.27;;;9.70;;
84780;SDS011;75011;50.086;19.886;2024-02-21T06:28:32;28.38;;;10.93;;
84780;SDS011;75011;50.086;19.886;2024-02-21T06:31:33;27.40;;;10.43;;
84780;SDS011;75011;50.086;19.886;2024-02-21T06:34:35;26.02;;;10.02;;
84780;SDS011;75011;50.086;19.886;2024-02-21T06:37:35;25.50;;;10.65;;
84780;SDS011;75011;50.086;19.886;2024-02-21T06:40:37;28.80;;;10.85;;
84780;SDS011;75011;50.086;19.886;2024-02-21T06:43:37;30.15;;;11.52;;
84780;SDS011;75011;50.086;19.886;2024-02-21T06:46:38;28.60;;;11.52;;
84780;SDS011;75011;50.086;19.886;2024-02-21T06:49:38;27.20;;;11.00;;
84780;SDS011;75011;50.086;19.886;2024-02-21T06:52:39;26.23;;;10.88;;
84780;SDS011;75011;50.086;19.886;2024-02-21T06:55:41;28.38;;;10.57;;
84780;SDS011;75011;50.086;19.886;2024-02-21T06:58:41;28.75;;;15.00;;
84780;SDS011;75011;50.086;19.886;2024-02-21T07:01:44;22.88;;;13.13;;
84780;SDS011;75011;50.086;19.886;2024-02-21T07:04:45;28.25;;;11.32;;
84780;SDS011;75011;50.086;19.886;2024-02-21T07:07:45;24.52;;;10.88;;
84780;SDS011;75011;50.086;19.886;2024-02-21T07:10:47;19.52;;;9.80;;
84780;SDS011;75011;50.086;19.886;2024-02-21T07:13:48;20.08;;;8.57;;
84780;SDS011;75011;50.086;19.886;2024-02-21T07:16:48;18.05;;;8.27;;
84780;SDS011;75011;50.086;19.886;2024-02-21T07:19:49;17.98;;;8.82;;
84780;SDS011;75011;50.086;19.886;2024-02-21T07:22:50;23.23;;;9.05;;
84780;SDS011;75011;50.086;19.886;2024-02-21T07:25:51;18.75;;;7.97;;
84780;SDS011;75011;50.086;19.886;2024-02-21T07:28:52;17.33;;;8.45;;
84780;SDS011;75011;50.086;19.886;2024-02-21T07:31:52;17.70;;;7.45;;
84780;SDS011;75011;50.086;19.886;2024-02-21T07:34:53;18.05;;;6.88;;
84780;SDS011;75011;50.086;19.886;2024-02-21T07:37:53;12.48;;;6.60;;
84780;SDS011;75011;50.086;19.886;2024-02-21T07:40:55;17.30;;;7.25;;
84780;SDS011;75011;50.086;19.886;2024-02-21T07:43:56;17.30;;;7.50;;
84780;SDS011;75011;50.086;19.886;2024-02-21T07:46:56;11.93;;;6.80;;
84780;SDS011;75011;50.086;19.886;2024-02-21T07:49:57;20.23;;;7.95;;
84780;SDS011;75011;50.086;19.886;2024-02-21T07:52:57;15.40;;;7.60;;
84780;SDS011;75011;50.086;19.886;2024-02-21T07:55:59;15.32;;;6.30;;
84780;SDS011;75011;50.086;19.886;2024-02-21T07:59:00;13.25;;;6.82;;
84780;SDS011;75011;50.086;19.886;2024-02-21T08:02:00;14.82;;;7.22;;
84780;SDS011;75011;50.086;19.886;2024-02-21T08:05:01;15.40;;;7.32;;
84780;SDS011;75011;50.086;19.886;2024-02-21T08:08:01;16.90;;;7.03;;
84780;SDS011;75011;50.086;19.886;2024-02-21T08:11:04;21.98;;;7.43;;
84780;SDS011;75011;50.086;19.886;2024-02-21T08:14:04;21.85;;;8.75;;
84780;SDS011;75011;50.086;19.886;2024-02-21T08:17:05;14.65;;;6.55;;
84780;SDS011;75011;50.086;19.886;2024-02-21T08:20:06;15.35;;;7.22;;
84780;SDS011;75011;50.086;19.886;2024-02-21T08:23:07;16.05;;;8.75;;
84780;SDS011;75011;50.086;19.886;2024-02-21T08:26:09;17.90;;;8.38;;
84780;SDS011;75011;50.086;19.886;2024-02-21T08:29:09;17.52;;;6.97;;
84780;SDS011;75011;50.086;19.886;2024-02-21T08:32:10;17.23;;;6.72;;
84780;SDS011;75011;50.086;19.886;2024-02-21T08:35:10;15.75;;;6.63;;
84780;SDS011;75011;50.086;19.886;2024-02-21T08:38:11;14.02;;;6.10;;
84780;SDS011;75011;50.086;19.886;2024-02-21T08:41:12;13.45;;;5.95;;
84780;SDS011;75011;50.086;19.886;2024-02-21T08:44:14;9.90;;;5.28;;
84780;SDS011;75011;50.086;19.886;2024-02-21T08:47:14;10.63;;;4.80;;
84780;SDS011;75011;50.086;19.886;2024-02-21T08:50:15;8.43;;;3.90;;
84780;SDS011;75011;50.086;19.886;2024-02-21T08:53:15;10.05;;;4.35;;
84780;SDS011;75011;50.086;19.886;2024-02-21T08:56:17;9.90;;;4.72;;
84780;SDS011;75011;50.086;19.886;2024-02-21T08:59:18;9.52;;;3.70;;
84780;SDS011;75011;50.086;19.886;2024-02-21T09:02:18;9.38;;;3.72;;
84780;SDS011;75011;50.086;19.886;2024-02-21T09:05:19;11.30;;;4.38;;
84780;SDS011;75011;50.086;19.886;2024-02-21T09:08:19;8.80;;;4.03;;
84780;SDS011;75011;50.086;19.886;2024-02-21T09:11:21;8.65;;;4.50;;
84780;SDS011;75011;50.086;19.886;2024-02-21T09:14:21;9.90;;;4.13;;
84780;SDS011;75011;50.086;19.886;2024-02-21T09:17:22;12.60;;;4.70;;
84780;SDS011;75011;50.086;19.886;2024-02-21T09:20:22;10.32;;;3.95;;
84780;SDS011;75011;50.086;19.886;2024-02-21T09:23:23;12.70;;;4.22;;
84780;SDS011;75011;50.086;19.886;2024-02-21T09:26:26;11.52;;;4.28;;
84780;SDS011;75011;50.086;19.886;2024-02-21T09:29:26;9.27;;;3.70;;
84780;SDS011;75011;50.086;19.886;2024-02-21T09:32:27;11.45;;;4.25;;
84780;SDS011;75011;50.086;19.886;2024-02-21T09:35:27;11.05;;;4.72;;
84780;SDS011;75011;50.086;19.886;2024-02-21T09:38:28;11.80;;;4.88;;
84780;SDS011;75011;50.086;19.886;2024-02-21T09:41:29;9.02;;;5.03;;
84780;SDS011;75011;50.086;19.886;2024-02-21T09:44:31;8.98;;;3.80;;
84780;SDS011;75011;50.086;19.886;2024-02-21T09:47:40;7.07;;;3.38;;
84780;SDS011;75011;50.086;19.886;2024-02-21T09:50:50;7.18;;;3.50;;
84780;SDS011;75011;50.086;19.886;2024-02-21T09:53:53;7.30;;;2.97;;
84780;SDS011;75011;50.086;19.886;2024-02-21T09:56:56;9.63;;;4.65;;
84780;SDS011;75011;50.086;19.886;2024-02-21T09:59:57;7.32;;;3.45;;
84780;SDS011;75011;50.086;19.886;2024-02-21T10:02:58;10.70;;;3.50;;
84780;SDS011;75011;50.086;19.886;2024-02-21T10:05:58;9.18;;;4.10;;
84780;SDS011;75011;50.086;19.886;2024-02-21T10:08:59;7.43;;;3.38;;
84780;SDS011;75011;50.086;19.886;2024-02-21T10:12:08;9.43;;;3.55;;
84780;SDS011;75011;50.086;19.886;2024-02-21T10:15:10;7.10;;;4.05;;
84780;SDS011;75011;50.086;19.886;2024-02-21T10:18:10;9.05;;;3.30;;
84780;SDS011;75011;50.086;19.886;2024-02-21T10:21:11;14.40;;;3.83;;
84780;SDS011;75011;50.086;19.886;2024-02-21T10:24:11;6.60;;;3.38;;
84780;SDS011;75011;50.086;19.886;2024-02-21T10:27:13;10.32;;;3.63;;
84780;SDS011;75011;50.086;19.886;2024-02-21T10:30:14;9.10;;;2.70;;
84780;SDS011;75011;50.086;19.886;2024-02-21T10:33:15;8.20;;;4.35;;
84780;SDS011;75011;50.086;19.886;2024-02-21T10:36:16;10.80;;;2.95;;
84780;SDS011;75011;50.086;19.886;2024-02-21T10:39:16;10.07;;;3.65;;
84780;SDS011;75011;50.086;19.886;2024-02-21T10:42:18;8.60;;;3.95;;
84780;SDS011;75011;50.086;19.886;2024-02-21T10:45:21;7.70;;;3.78;;
84780;SDS011;75011;50.086;19.886;2024-02-21T10:48:29;4.13;;;2.65;;
84780;SDS011;75011;50.086;19.886;2024-02-21T10:51:37;8.07;;;3.58;;
84780;SDS011;75011;50.086;19.886;2024-02-21T10:54:44;7.57;;;3.55;;
84780;SDS011;75011;50.086;19.886;2024-02-21T10:57:49;9.98;;;3.25;;
84780;SDS011;75011;50.086;19.886;2024-02-21T11:00:50;7.10;;;3.38;;
84780;SDS011;75011;50.086;19.886;2024-02-21T11:03:51;5.68;;;2.85;;
84780;SDS011;75011;50.086;19.886;2024-02-21T11:06:54;6.55;;;2.90;;
84780;SDS011;75011;50.086;19.886;2024-02-21T11:09:54;6.63;;;2.88;;
84780;SDS011;75011;50.086;19.886;2024-02-21T11:13:06;8.90;;;2.60;;
84780;SDS011;75011;50.086;19.886;2024-02-21T11:16:07;6.55;;;2.95;;
84780;SDS011;75011;50.086;19.886;2024-02-21T11:19:09;7.03;;;2.92;;
84780;SDS011;75011;50.086;19.886;2024-02-21T11:22:20;7.40;;;3.80;;
84780;SDS011;75011;50.086;19.886;2024-02-21T11:25:21;7.38;;;2.90;;
84780;SDS011;75011;50.086;19.886;2024-02-21T11:28:26;6.88;;;2.88;;
84780;SDS011;75011;50.086;19.886;2024-02-21T11:31:26;6.90;;;2.83;;
84780;SDS011;75011;50.086;19.886;2024-02-21T11:34:27;6.25;;;3.42;;
84780;SDS011;75011;50.086;19.886;2024-02-21T11:37:28;10.02;;;3.60;;
84780;SDS011;75011;50.086;19.886;2024-02-21T11:40:29;6.35;;;3.47;;
84780;SDS011;75011;50.086;19.886;2024-02-21T11:43:31;9.68;;;3.47;;
84780;SDS011;75011;50.086;19.886;2024-02-21T11:46:31;8.15;;;3.28;;
84780;SDS011;75011;50.086;19.886;2024-02-21T11:49:36;8.35;;;4.18;;
84780;SDS011;75011;50.086;19.886;2024-02-21T11:52:37;7.85;;;3.78;;
84780;SDS011;75011;50.086;19.886;2024-02-21T11:55:38;9.90;;;3.85;;
84780;SDS011;75011;50.086;19.886;2024-02-21T11:58:40;10.77;;;3.42;;
84780;SDS011;75011;50.086;19.886;2024-02-21T12:01:40;7.80;;;3.40;;
84780;SDS011;75011;50.086;19.886;2024-02-21T12:04:41;6.75;;;4.28;;
84780;SDS011;75011;50.086;19.886;2024-02-21T12:07:42;6.80;;;3.83;;
84780;SDS011;75011;50.086;19.886;2024-02-21T12:10:43;7.35;;;3.33;;
84780;SDS011;75011;50.086;19.886;2024-02-21T12:13:45;10.15;;;3.63;;
84780;SDS011;75011;50.086;19.886;2024-02-21T12:16:46;7.30;;;3.08;;
84780;SDS011;75011;50.086;19.886;2024-02-21T12:19:47;7.20;;;3.25;;
84780;SDS011;75011;50.086;19.886;2024-02-21T12:22:49;8.27;;;3.10;;
84780;SDS011;75011;50.086;19.886;2024-02-21T12:25:50;8.48;;;4.63;;
84780;SDS011;75011;50.086;19.886;2024-02-21T12:28:52;9.38;;;3.75;;
84780;SDS011;75011;50.086;19.886;2024-02-21T12:31:53;7.57;;;3.67;;
84780;SDS011;75011;50.086;19.886;2024-02-21T12:34:54;9.77;;;3.17;;
84780;SDS011;75011;50.086;19.886;2024-02-21T12:37:54;6.90;;;2.53;;
84780;SDS011;75011;50.086;19.886;2024-02-21T12:40:54;6.57;;;3.15;;
84780;SDS011;75011;50.086;19.886;2024-02-21T12:43:57;7.60;;;3.10;;
84780;SDS011;75011;50.086;19.886;2024-02-21T12:46:57;9.18;;;3.13;;
84780;SDS011;75011;50.086;19.886;2024-02-21T12:49:58;8.57;;;3.08;;
84780;SDS011;75011;50.086;19.886;2024-02-21T12:52:58;8.57;;;3.15;;
84780;SDS011;75011;50.086;19.886;2024-02-21T12:55:59;6.50;;;3.03;;
84780;SDS011;75011;50.086;19.886;2024-02-21T12:59:01;6.25;;;2.70;;
84780;SDS011;75011;50.086;19.886;2024-02-21T13:02:01;6.18;;;3.08;;
84780;SDS011;75011;50.086;19.886;2024-02-21T13:05:02;8.38;;;2.67;;
84780;SDS011;75011;50.086;19.886;2024-02-21T13:08:03;9.05;;;2.95;;
84780;SDS011;75011;50.086;19.886;2024-02-21T13:11:04;8.18;;;3.20;;
84780;SDS011;75011;50.086;19.886;2024-02-21T13:14:06;6.20;;;2.75;;
84780;SDS011;75011;50.086;19.886;2024-02-21T13:17:07;7.47;;;2.63;;
84780;SDS011;75011;50.086;19.886;2024-02-21T13:20:08;6.47;;;3.03;;
84780;SDS011;75011;50.086;19.886;2024-02-21T13:23:09;6.80;;;3.03;;
84780;SDS011;75011;50.086;19.886;2024-02-21T13:26:10;7.38;;;3.22;;
84780;SDS011;75011;50.086;19.886;2024-02-21T13:29:12;8.77;;;3.15;;
84780;SDS011;75011;50.086;19.886;2024-02-21T13:32:12;9.23;;;3.35;;
84780;SDS011;75011;50.086;19.886;2024-02-21T13:35:13;8.50;;;3.17;;
84780;SDS011;75011;50.086;19.886;2024-02-21T13:38:14;7.65;;;3.60;;
84780;SDS011;75011;50.086;19.886;2024-02-21T13:41:14;8.38;;;3.17;;
84780;SDS011;75011;50.086;19.886;2024-02-21T13:44:16;6.55;;;2.90;;
84780;SDS011;75011;50.086;19.886;2024-02-21T13:47:17;6.28;;;3.97;;
84780;SDS011;75011;50.086;19.886;2024-02-21T13:50:17;8.20;;;3.78;;
84780;SDS011;75011;50.086;19.886;2024-02-21T13:53:18;10.45;;;3.40;;
84780;SDS011;75011;50.086;19.886;2024-02-21T13:56:22;10.60;;;3.30;;
84780;SDS011;75011;50.086;19.886;2024-02-21T13:59:24;8.00;;;4.30;;
84780;SDS011;75011;50.086;19.886;2024-02-21T14:02:25;7.07;;;3.70;;
84780;SDS011;75011;50.086;19.886;2024-02-21T14:05:25;6.97;;;2.90;;
84780;SDS011;75011;50.086;19.886;2024-02-21T14:08:26;9.80;;;3.95;;
84780;SDS011;75011;50.086;19.886;2024-02-21T14:11:26;6.22;;;1.98;;
84780;SDS011;75011;50.086;19.886;2024-02-21T14:14:28;11.75;;;3.47;;
84780;SDS011;75011;50.086;19.886;2024-02-21T14:17:29;6.35;;;3.50;;
84780;SDS011;75011;50.086;19.886;2024-02-21T14:20:29;7.45;;;3.67;;
84780;SDS011;75011;50.086;19.886;2024-02-21T14:23:30;11.30;;;3.25;;
84780;SDS011;75011;50.086;19.886;2024-02-21T14:26:30;9.38;;;3.47;;
84780;SDS011;75011;50.086;19.886;2024-02-21T14:29:32;12.60;;;3.88;;
84780;SDS011;75011;50.086;19.886;2024-02-21T14:32:33;11.30;;;4.13;;
84780;SDS011;75011;50.086;19.886;2024-02-21T14:35:33;9.73;;;4.05;;
84780;SDS011;75011;50.086;19.886;2024-02-21T14:38:33;8.77;;;4.20;;
84780;SDS011;75011;50.086;19.886;2024-02-21T14:41:34;8.48;;;3.63;;
84780;SDS011;75011;50.086;19.886;2024-02-21T14:44:36;11.27;;;4.63;;
84780;SDS011;75011;50.086;19.886;2024-02-21T14:47:36;12.27;;;4.55;;
84780;SDS011;75011;50.086;19.886;2024-02-21T14:50:37;9.38;;;4.18;;
84780;SDS011;75011;50.086;19.886;2024-02-21T14:53:37;12.73;;;5.07;;
84780;SDS011;75011;50.086;19.886;2024-02-21T14:56:38;10.00;;;4.95;;
84780;SDS011;75011;50.086;19.886;2024-02-21T14:59:41;9.02;;;3.67;;
84780;SDS011;75011;50.086;19.886;2024-02-21T15:02:42;13.10;;;6.28;;
84780;SDS011;75011;50.086;19.886;2024-02-21T15:05:42;14.82;;;5.97;;
84780;SDS011;75011;50.086;19.886;2024-02-21T15:08:43;9.15;;;5.03;;
84780;SDS011;75011;50.086;19.886;2024-02-21T15:11:43;11.50;;;5.15;;
84780;SDS011;75011;50.086;19.886;2024-02-21T15:14:45;12.18;;;5.43;;
84780;SDS011;75011;50.086;19.886;2024-02-21T15:17:45;11.70;;;5.68;;
84780;SDS011;75011;50.086;19.886;2024-02-21T15:20:46;11.68;;;5.07;;
84780;SDS011;75011;50.086;19.886;2024-02-21T15:23:46;12.57;;;5.57;;
84780;SDS011;75011;50.086;19.886;2024-02-21T15:26:47;11.52;;;5.60;;
84780;SDS011;75011;50.086;19.886;2024-02-21T15:29:49;12.90;;;5.90;;
84780;SDS011;75011;50.086;19.886;2024-02-21T15:32:49;18.83;;;6.55;;
84780;SDS011;75011;50.086;19.886;2024-02-21T15:35:49;16.60;;;7.07;;
84780;SDS011;75011;50.086;19.886;2024-02-21T15:38:50;16.65;;;6.35;;
84780;SDS011;75011;50.086;19.886;2024-02-21T15:41:50;18.20;;;6.70;;
84780;SDS011;75011;50.086;19.886;2024-02-21T15:44:52;14.75;;;7.70;;
84780;SDS011;75011;50.086;19.886;2024-02-21T15:47:53;16.80;;;7.13;;
84780;SDS011;75011;50.086;19.886;2024-02-21T15:50:53;13.68;;;6.70;;
84780;SDS011;75011;50.086;19.886;2024-02-21T15:53:54;18.50;;;7.82;;
84780;SDS011;75011;50.086;19.886;2024-02-21T15:56:54;15.65;;;6.75;;
84780;SDS011;75011;50.086;19.886;2024-02-21T15:59:56;16.90;;;8.43;;
84780;SDS011;75011;50.086;19.886;2024-02-21T16:02:57;15.38;;;7.35;;
84780;SDS011;75011;50.086;19.886;2024-02-21T16:05:57;11.10;;;6.63;;
84780;SDS011;75011;50.086;19.886;2024-02-21T16:08:58;16.85;;;9.25;;
84780;SDS011;75011;50.086;19.886;2024-02-21T16:11:58;15.18;;;7.65;;
84780;SDS011;75011;50.086;19.886;2024-02-21T16:15:00;16.80;;;6.90;;
84780;SDS011;75011;50.086;19.886;2024-02-21T16:18:00;18.42;;;8.02;;
84780;SDS011;75011;50.086;19.886;2024-02-21T16:21:01;17.90;;;7.57;;
84780;SDS011;75011;50.086;19.886;2024-02-21T16:24:01;16.88;;;8.52;;
84780;SDS011;75011;50.086;19.886;2024-02-21T16:27:02;17.17;;;8.45;;
84780;SDS011;75011;50.086;19.886;2024-02-21T16:30:05;15.88;;;7.80;;
84780;SDS011;75011;50.086;19.886;2024-02-21T16:33:07;14.85;;;7.72;;
84780;SDS011;75011;50.086;19.886;2024-02-21T16:36:07;14.18;;;7.88;;
84780;SDS011;75011;50.086;19.886;2024-02-21T16:39:08;14.77;;;8.02;;
84780;SDS011;75011;50.086;19.886;2024-02-21T16:42:08;16.17;;;8.25;;
84780;SDS011;75011;50.086;19.886;2024-02-21T16:45:10;14.82;;;8.25;;
84780;SDS011;75011;50.086;19.886;2024-02-21T16:48:11;16.55;;;8.45;;
84780;SDS011;75011;50.086;19.886;2024-02-21T16:51:11;16.83;;;7.47;;
84780;SDS011;75011;50.086;19.886;2024-02-21T16:54:12;17.85;;;9.32;;
84780;SDS011;75011;50.086;19.886;2024-02-21T16:57:12;18.00;;;8.73;;
84780;SDS011;75011;50.086;19.886;2024-02-21T17:00:15;14.90;;;8.02;;
84780;SDS011;75011;50.086;19.886;2024-02-21T17:03:15;15.75;;;8.15;;
84780;SDS011;75011;50.086;19.886;2024-02-21T17:06:16;15.43;;;8.13;;
84780;SDS011;75011;50.086;19.886;2024-02-21T17:09:17;14.82;;;7.05;;
84780;SDS011;75011;50.086;19.886;2024-02-21T17:12:17;13.55;;;7.35;;
84780;SDS011;75011;50.086;19.886;2024-02-21T17:15:19;12.20;;;6.82;;
84780;SDS011;75011;50.086;19.886;2024-02-21T17:18:19;14.13;;;6.93;;
84780;SDS011;75011;50.086;19.886;2024-02-21T17:21:20;13.55;;;6.40;;
84780;SDS011;75011;50.086;19.886;2024-02-21T17:24:20;12.88;;;6.93;;
84780;SDS011;75011;50.086;19.886;2024-02-21T17:27:21;14.93;;;6.90;;
84780;SDS011;75011;50.086;19.886;2024-02-21T17:30:23;17.23;;;7.80;;
84780;SDS011;75011;50.086;19.886;2024-02-21T17:33:23;14.23;;;6.95;;
84780;SDS011;75011;50.086;19.886;2024-02-21T17:36:24;15.18;;;7.75;;
84780;SDS011;75011;50.086;19.886;2024-02-21T17:39:24;15.23;;;7.93;;